sensor_id;sensor_type;location;lat;lon;timestamp;P1;durP1;ratioP1;P2;durP2;ratioP2
10811;SDS011;5458;51.496;7.334;2022-08-20T00:00:59;16.05;;;12.10;;
10811;SDS011;5458;51.496;7.334;2022-08-20T00:03:27;17.80;;;12.00;;
10811;SDS011;5458;51.496;7.334;2022-08-20T00:08:41;19.20;;;13.02;;
10811;SDS011;5458;51.496;7.334;2022-08-20T00:11:07;19.17;;;13.57;;
10811;SDS011;5458;51.496;7.334;2022-08-20T00:13:36;19.95;;;12.80;;
10811;SDS011;5458;51.496;7.334;2022-08-20T00:16:15;22.55;;;14.45;;
10811;SDS011;5458;51.496;7.334;2022-08-20T00:18:42;18.60;;;12.98;;
10811;SDS011;5458;51.496;7.334;2022-08-20T00:21:09;20.10;;;13.35;;
10811;SDS011;5458;51.496;7.334;2022-08-20T00:23:36;22.52;;;15.10;;
10811;SDS011;5458;51.496;7.334;2022-08-20T00:26:04;18.85;;;13.77;;
10811;SDS011;5458;51.496;7.334;2022-08-20T00:28:31;20.13;;;13.15;;
10811;SDS011;5458;51.496;7.334;2022-08-20T00:30:56;18.48;;;12.93;;
10811;SDS011;5458;51.496;7.334;2022-08-20T00:33:23;22.42;;;14.15;;
10811;SDS011;5458;51.496;7.334;2022-08-20T00:35:50;18.30;;;12.75;;
10811;SDS011;5458;51.496;7.334;2022-08-20T00:38:19;19.15;;;13.77;;
10811;SDS011;5458;51.496;7.334;2022-08-20T00:40:46;20.35;;;14.05;;
10811;SDS011;5458;51.496;7.334;2022-08-20T00:43:52;19.55;;;13.85;;
10811;SDS011;5458;51.496;7.334;2022-08-20T00:46:11;19.05;;;14.20;;
10811;SDS011;5458;51.496;7.334;2022-08-20T00:48:41;19.23;;;13.55;;
10811;SDS011;5458;51.496;7.334;2022-08-20T00:54:10;18.35;;;11.80;;
10811;SDS011;5458;51.496;7.334;2022-08-20T00:56:40;8.20;;;4.15;;
10811;SDS011;5458;51.496;7.334;2022-08-20T00:59:09;3.65;;;2.30;;
10811;SDS011;5458;51.496;7.334;2022-08-20T01:01:40;4.03;;;2.55;;
10811;SDS011;5458;51.496;7.334;2022-08-20T01:04:07;5.97;;;3.00;;
10811;SDS011;5458;51.496;7.334;2022-08-20T01:06:35;5.30;;;3.63;;
10811;SDS011;5458;51.496;7.334;2022-08-20T01:09:01;4.25;;;3.08;;
10811;SDS011;5458;51.496;7.334;2022-08-20T01:11:28;6.30;;;3.63;;
10811;SDS011;5458;51.496;7.334;2022-08-20T01:13:57;5.75;;;3.92;;
10811;SDS011;5458;51.496;7.334;2022-08-20T01:16:25;5.70;;;4.47;;
10811;SDS011;5458;51.496;7.334;2022-08-20T01:18:55;6.72;;;4.80;;
10811;SDS011;5458;51.496;7.334;2022-08-20T01:21:22;7.28;;;5.53;;
10811;SDS011;5458;51.496;7.334;2022-08-20T01:24:02;6.47;;;5.35;;
10811;SDS011;5458;51.496;7.334;2022-08-20T01:27:01;6.00;;;4.75;;
10811;SDS011;5458;51.496;7.334;2022-08-20T01:29:30;8.15;;;5.95;;
10811;SDS011;5458;51.496;7.334;2022-08-20T01:32:02;7.22;;;5.30;;
10811;SDS011;5458;51.496;7.334;2022-08-20T01:34:28;9.70;;;6.25;;
10811;SDS011;5458;51.496;7.334;2022-08-20T01:36:54;6.15;;;5.05;;
10811;SDS011;5458;51.496;7.334;2022-08-20T01:39:23;6.72;;;5.53;;
10811;SDS011;5458;51.496;7.334;2022-08-20T01:44:37;8.32;;;6.13;;
10811;SDS011;5458;51.496;7.334;2022-08-20T01:49:39;10.63;;;8.63;;
10811;SDS011;5458;51.496;7.334;2022-08-20T01:52:08;9.15;;;8.07;;
10811;SDS011;5458;51.496;7.334;2022-08-20T01:54:38;16.35;;;13.55;;
10811;SDS011;5458;51.496;7.334;2022-08-20T01:57:05;21.17;;;16.60;;
10811;SDS011;5458;51.496;7.334;2022-08-20T01:59:36;19.75;;;16.33;;
10811;SDS011;5458;51.496;7.334;2022-08-20T02:02:01;23.63;;;16.75;;
10811;SDS011;5458;51.496;7.334;2022-08-20T02:04:28;21.73;;;18.27;;
10811;SDS011;5458;51.496;7.334;2022-08-20T02:06:55;21.13;;;16.88;;
10811;SDS011;5458;51.496;7.334;2022-08-20T02:09:22;19.98;;;17.25;;
10811;SDS011;5458;51.496;7.334;2022-08-20T02:11:51;20.02;;;16.73;;
10811;SDS011;5458;51.496;7.334;2022-08-20T02:14:17;20.42;;;16.30;;
10811;SDS011;5458;51.496;7.334;2022-08-20T02:16:44;20.70;;;17.35;;
10811;SDS011;5458;51.496;7.334;2022-08-20T02:19:15;21.35;;;16.73;;
10811;SDS011;5458;51.496;7.334;2022-08-20T02:21:48;20.92;;;16.38;;
10811;SDS011;5458;51.496;7.334;2022-08-20T02:24:17;19.95;;;16.90;;
10811;SDS011;5458;51.496;7.334;2022-08-20T02:26:44;23.23;;;17.48;;
10811;SDS011;5458;51.496;7.334;2022-08-20T02:29:10;20.13;;;17.40;;
10811;SDS011;5458;51.496;7.334;2022-08-20T02:31:37;21.35;;;16.50;;
10811;SDS011;5458;51.496;7.334;2022-08-20T02:34:04;23.35;;;17.45;;
10811;SDS011;5458;51.496;7.334;2022-08-20T02:36:32;21.48;;;16.95;;
10811;SDS011;5458;51.496;7.334;2022-08-20T02:39:00;22.05;;;16.65;;
10811;SDS011;5458;51.496;7.334;2022-08-20T02:41:26;22.20;;;16.80;;
10811;SDS011;5458;51.496;7.334;2022-08-20T02:43:52;19.98;;;16.05;;
10811;SDS011;5458;51.496;7.334;2022-08-20T02:46:17;20.08;;;16.77;;
10811;SDS011;5458;51.496;7.334;2022-08-20T02:48:43;20.83;;;16.50;;
10811;SDS011;5458;51.496;7.334;2022-08-20T02:51:09;19.98;;;15.75;;
10811;SDS011;5458;51.496;7.334;2022-08-20T02:53:36;20.60;;;16.95;;
10811;SDS011;5458;51.496;7.334;2022-08-20T02:56:04;22.13;;;15.63;;
10811;SDS011;5458;51.496;7.334;2022-08-20T02:58:30;19.80;;;16.13;;
10811;SDS011;5458;51.496;7.334;2022-08-20T03:00:56;18.90;;;15.88;;
10811;SDS011;5458;51.496;7.334;2022-08-20T03:03:22;19.67;;;16.30;;
10811;SDS011;5458;51.496;7.334;2022-08-20T03:05:50;19.48;;;15.73;;
10811;SDS011;5458;51.496;7.334;2022-08-20T03:08:17;19.20;;;15.30;;
10811;SDS011;5458;51.496;7.334;2022-08-20T03:10:43;19.63;;;15.15;;
10811;SDS011;5458;51.496;7.334;2022-08-20T03:13:10;19.58;;;15.60;;
10811;SDS011;5458;51.496;7.334;2022-08-20T03:15:39;18.38;;;15.10;;
10811;SDS011;5458;51.496;7.334;2022-08-20T03:18:06;20.35;;;14.60;;
10811;SDS011;5458;51.496;7.334;2022-08-20T03:20:32;19.08;;;15.23;;
10811;SDS011;5458;51.496;7.334;2022-08-20T03:22:59;18.33;;;14.65;;
10811;SDS011;5458;51.496;7.334;2022-08-20T03:25:24;18.80;;;15.55;;
10811;SDS011;5458;51.496;7.334;2022-08-20T03:27:51;20.58;;;15.95;;
10811;SDS011;5458;51.496;7.334;2022-08-20T03:30:17;20.13;;;16.40;;
10811;SDS011;5458;51.496;7.334;2022-08-20T03:32:44;19.65;;;15.18;;
10811;SDS011;5458;51.496;7.334;2022-08-20T03:35:12;22.02;;;16.30;;
10811;SDS011;5458;51.496;7.334;2022-08-20T03:37:40;20.08;;;15.30;;
10811;SDS011;5458;51.496;7.334;2022-08-20T03:40:07;22.13;;;16.17;;
10811;SDS011;5458;51.496;7.334;2022-08-20T03:42:36;22.90;;;16.02;;
10811;SDS011;5458;51.496;7.334;2022-08-20T03:45:03;19.83;;;15.23;;
10811;SDS011;5458;51.496;7.334;2022-08-20T03:47:30;20.15;;;15.63;;
10811;SDS011;5458;51.496;7.334;2022-08-20T03:49:59;20.73;;;15.38;;
10811;SDS011;5458;51.496;7.334;2022-08-20T03:52:26;21.33;;;16.10;;
10811;SDS011;5458;51.496;7.334;2022-08-20T03:54:53;22.40;;;16.05;;
10811;SDS011;5458;51.496;7.334;2022-08-20T03:57:19;20.60;;;16.70;;
10811;SDS011;5458;51.496;7.334;2022-08-20T03:59:45;21.58;;;17.10;;
10811;SDS011;5458;51.496;7.334;2022-08-20T04:02:11;21.50;;;16.95;;
10811;SDS011;5458;51.496;7.334;2022-08-20T04:04:37;18.35;;;14.95;;
10811;SDS011;5458;51.496;7.334;2022-08-20T04:07:08;22.25;;;16.58;;
10811;SDS011;5458;51.496;7.334;2022-08-20T04:09:36;22.60;;;16.90;;
10811;SDS011;5458;51.496;7.334;2022-08-20T04:12:03;20.73;;;15.30;;
10811;SDS011;5458;51.496;7.334;2022-08-20T04:14:28;18.98;;;15.50;;
10811;SDS011;5458;51.496;7.334;2022-08-20T04:16:54;21.73;;;16.20;;
10811;SDS011;5458;51.496;7.334;2022-08-20T04:19:19;20.40;;;15.95;;
10811;SDS011;5458;51.496;7.334;2022-08-20T04:21:45;20.50;;;15.95;;
10811;SDS011;5458;51.496;7.334;2022-08-20T04:24:12;21.15;;;15.57;;
10811;SDS011;5458;51.496;7.334;2022-08-20T04:26:40;19.38;;;14.27;;
10811;SDS011;5458;51.496;7.334;2022-08-20T04:29:06;19.05;;;14.70;;
10811;SDS011;5458;51.496;7.334;2022-08-20T04:31:32;18.80;;;14.82;;
10811;SDS011;5458;51.496;7.334;2022-08-20T04:34:01;21.77;;;15.82;;
10811;SDS011;5458;51.496;7.334;2022-08-20T04:36:28;22.40;;;15.65;;
10811;SDS011;5458;51.496;7.334;2022-08-20T04:38:55;22.77;;;15.57;;
10811;SDS011;5458;51.496;7.334;2022-08-20T04:41:21;20.80;;;16.20;;
10811;SDS011;5458;51.496;7.334;2022-08-20T04:43:47;20.25;;;15.05;;
10811;SDS011;5458;51.496;7.334;2022-08-20T04:46:13;19.58;;;15.20;;
10811;SDS011;5458;51.496;7.334;2022-08-20T04:48:39;22.75;;;16.88;;
10811;SDS011;5458;51.496;7.334;2022-08-20T04:51:08;21.38;;;15.57;;
10811;SDS011;5458;51.496;7.334;2022-08-20T04:53:34;21.17;;;15.48;;
10811;SDS011;5458;51.496;7.334;2022-08-20T04:56:00;20.65;;;15.98;;
10811;SDS011;5458;51.496;7.334;2022-08-20T04:58:31;20.00;;;14.93;;
10811;SDS011;5458;51.496;7.334;2022-08-20T05:01:00;19.40;;;15.25;;
10811;SDS011;5458;51.496;7.334;2022-08-20T05:03:31;19.60;;;14.82;;
10811;SDS011;5458;51.496;7.334;2022-08-20T05:05:57;20.60;;;15.10;;
10811;SDS011;5458;51.496;7.334;2022-08-20T05:08:25;20.73;;;15.63;;
10811;SDS011;5458;51.496;7.334;2022-08-20T05:10:52;21.65;;;15.48;;
10811;SDS011;5458;51.496;7.334;2022-08-20T05:13:18;21.67;;;16.58;;
10811;SDS011;5458;51.496;7.334;2022-08-20T05:15:44;23.58;;;15.88;;
10811;SDS011;5458;51.496;7.334;2022-08-20T05:18:10;23.80;;;15.63;;
10811;SDS011;5458;51.496;7.334;2022-08-20T05:20:37;21.40;;;14.63;;
10811;SDS011;5458;51.496;7.334;2022-08-20T05:23:06;19.25;;;14.15;;
10811;SDS011;5458;51.496;7.334;2022-08-20T05:25:34;19.77;;;15.25;;
10811;SDS011;5458;51.496;7.334;2022-08-20T05:28:02;20.08;;;14.43;;
10811;SDS011;5458;51.496;7.334;2022-08-20T05:30:33;18.67;;;13.55;;
10811;SDS011;5458;51.496;7.334;2022-08-20T05:32:59;18.25;;;13.73;;
10811;SDS011;5458;51.496;7.334;2022-08-20T05:35:27;19.15;;;14.60;;
10811;SDS011;5458;51.496;7.334;2022-08-20T05:37:53;17.58;;;13.95;;
10811;SDS011;5458;51.496;7.334;2022-08-20T05:40:19;16.85;;;12.52;;
10811;SDS011;5458;51.496;7.334;2022-08-20T05:42:46;18.20;;;13.93;;
10811;SDS011;5458;51.496;7.334;2022-08-20T05:45:12;18.48;;;13.57;;
10811;SDS011;5458;51.496;7.334;2022-08-20T05:47:40;19.58;;;14.30;;
10811;SDS011;5458;51.496;7.334;2022-08-20T05:50:07;20.45;;;14.27;;
10811;SDS011;5458;51.496;7.334;2022-08-20T05:52:34;18.42;;;14.05;;
10811;SDS011;5458;51.496;7.334;2022-08-20T05:55:00;17.40;;;13.32;;
10811;SDS011;5458;51.496;7.334;2022-08-20T05:57:25;19.70;;;13.85;;
10811;SDS011;5458;51.496;7.334;2022-08-20T05:59:51;17.10;;;14.00;;
10811;SDS011;5458;51.496;7.334;2022-08-20T06:02:17;19.95;;;14.10;;
10811;SDS011;5458;51.496;7.334;2022-08-20T06:05:01;21.52;;;14.77;;
10811;SDS011;5458;51.496;7.334;2022-08-20T06:07:27;21.75;;;15.25;;
10811;SDS011;5458;51.496;7.334;2022-08-20T06:09:53;20.38;;;15.88;;
10811;SDS011;5458;51.496;7.334;2022-08-20T06:12:18;20.65;;;16.40;;
10811;SDS011;5458;51.496;7.334;2022-08-20T06:14:44;20.83;;;16.33;;
10811;SDS011;5458;51.496;7.334;2022-08-20T06:17:15;20.45;;;15.55;;
10811;SDS011;5458;51.496;7.334;2022-08-20T06:19:44;22.67;;;16.50;;
10811;SDS011;5458;51.496;7.334;2022-08-20T06:22:11;20.15;;;15.57;;
10811;SDS011;5458;51.496;7.334;2022-08-20T06:24:37;22.17;;;15.52;;
10811;SDS011;5458;51.496;7.334;2022-08-20T06:27:04;18.42;;;14.75;;
10811;SDS011;5458;51.496;7.334;2022-08-20T06:29:31;23.00;;;16.10;;
10811;SDS011;5458;51.496;7.334;2022-08-20T06:31:57;20.15;;;15.20;;
10811;SDS011;5458;51.496;7.334;2022-08-20T06:34:23;21.80;;;16.88;;
10811;SDS011;5458;51.496;7.334;2022-08-20T06:36:52;22.83;;;16.27;;
10811;SDS011;5458;51.496;7.334;2022-08-20T06:39:18;21.20;;;16.75;;
10811;SDS011;5458;51.496;7.334;2022-08-20T06:41:44;21.85;;;17.33;;
10811;SDS011;5458;51.496;7.334;2022-08-20T06:44:10;23.85;;;18.90;;
10811;SDS011;5458;51.496;7.334;2022-08-20T06:46:36;22.85;;;18.42;;
10811;SDS011;5458;51.496;7.334;2022-08-20T06:49:03;22.35;;;18.35;;
10811;SDS011;5458;51.496;7.334;2022-08-20T06:51:29;22.52;;;16.95;;
10811;SDS011;5458;51.496;7.334;2022-08-20T06:53:55;25.05;;;17.40;;
10811;SDS011;5458;51.496;7.334;2022-08-20T06:56:21;24.77;;;18.63;;
10811;SDS011;5458;51.496;7.334;2022-08-20T06:58:47;22.52;;;16.70;;
10811;SDS011;5458;51.496;7.334;2022-08-20T07:01:13;23.20;;;17.48;;
10811;SDS011;5458;51.496;7.334;2022-08-20T07:03:41;25.23;;;18.20;;
10811;SDS011;5458;51.496;7.334;2022-08-20T07:06:07;23.30;;;17.67;;
10811;SDS011;5458;51.496;7.334;2022-08-20T07:08:33;23.25;;;17.83;;
10811;SDS011;5458;51.496;7.334;2022-08-20T07:11:00;23.08;;;17.23;;
10811;SDS011;5458;51.496;7.334;2022-08-20T07:13:26;23.15;;;17.75;;
10811;SDS011;5458;51.496;7.334;2022-08-20T07:15:53;23.17;;;17.23;;
10811;SDS011;5458;51.496;7.334;2022-08-20T07:18:19;24.83;;;17.63;;
10811;SDS011;5458;51.496;7.334;2022-08-20T07:20:46;23.95;;;18.42;;
10811;SDS011;5458;51.496;7.334;2022-08-20T07:23:12;23.73;;;17.20;;
10811;SDS011;5458;51.496;7.334;2022-08-20T07:25:39;27.48;;;18.10;;
10811;SDS011;5458;51.496;7.334;2022-08-20T07:28:10;23.67;;;18.38;;
10811;SDS011;5458;51.496;7.334;2022-08-20T07:30:38;24.38;;;18.00;;
10811;SDS011;5458;51.496;7.334;2022-08-20T07:33:22;25.33;;;19.38;;
10811;SDS011;5458;51.496;7.334;2022-08-20T07:35:48;24.77;;;18.70;;
10811;SDS011;5458;51.496;7.334;2022-08-20T07:38:16;23.60;;;18.33;;
10811;SDS011;5458;51.496;7.334;2022-08-20T07:41:07;23.45;;;18.88;;
10811;SDS011;5458;51.496;7.334;2022-08-20T07:43:39;23.88;;;18.15;;
10811;SDS011;5458;51.496;7.334;2022-08-20T07:46:05;23.85;;;18.33;;
10811;SDS011;5458;51.496;7.334;2022-08-20T07:48:33;28.27;;;18.77;;
10811;SDS011;5458;51.496;7.334;2022-08-20T07:51:01;24.52;;;18.52;;
10811;SDS011;5458;51.496;7.334;2022-08-20T07:53:28;22.08;;;17.67;;
10811;SDS011;5458;51.496;7.334;2022-08-20T07:55:55;25.45;;;18.98;;
10811;SDS011;5458;51.496;7.334;2022-08-20T07:58:21;26.60;;;19.63;;
10811;SDS011;5458;51.496;7.334;2022-08-20T08:00:48;22.92;;;17.73;;
10811;SDS011;5458;51.496;7.334;2022-08-20T08:03:14;25.73;;;19.42;;
10811;SDS011;5458;51.496;7.334;2022-08-20T08:05:41;24.50;;;18.42;;
10811;SDS011;5458;51.496;7.334;2022-08-20T08:08:11;24.02;;;17.67;;
10811;SDS011;5458;51.496;7.334;2022-08-20T08:10:42;22.08;;;18.50;;
10811;SDS011;5458;51.496;7.334;2022-08-20T08:13:10;25.33;;;19.05;;
10811;SDS011;5458;51.496;7.334;2022-08-20T08:15:38;24.63;;;18.25;;
10811;SDS011;5458;51.496;7.334;2022-08-20T08:18:13;20.90;;;17.50;;
10811;SDS011;5458;51.496;7.334;2022-08-20T08:20:45;25.50;;;18.83;;
10811;SDS011;5458;51.496;7.334;2022-08-20T08:23:13;24.50;;;18.67;;
10811;SDS011;5458;51.496;7.334;2022-08-20T08:25:39;22.05;;;16.98;;
10811;SDS011;5458;51.496;7.334;2022-08-20T08:28:06;21.15;;;16.77;;
10811;SDS011;5458;51.496;7.334;2022-08-20T08:30:39;21.52;;;16.20;;
10811;SDS011;5458;51.496;7.334;2022-08-20T08:33:07;19.50;;;15.65;;
10811;SDS011;5458;51.496;7.334;2022-08-20T08:35:57;17.60;;;14.07;;
10811;SDS011;5458;51.496;7.334;2022-08-20T08:38:23;16.73;;;14.27;;
10811;SDS011;5458;51.496;7.334;2022-08-20T08:40:50;16.13;;;13.35;;
10811;SDS011;5458;51.496;7.334;2022-08-20T08:43:18;16.35;;;14.02;;
10811;SDS011;5458;51.496;7.334;2022-08-20T08:45:46;17.02;;;14.07;;
10811;SDS011;5458;51.496;7.334;2022-08-20T08:48:23;12.57;;;11.35;;
10811;SDS011;5458;51.496;7.334;2022-08-20T08:50:55;13.75;;;12.25;;
10811;SDS011;5458;51.496;7.334;2022-08-20T08:53:27;14.65;;;12.57;;
10811;SDS011;5458;51.496;7.334;2022-08-20T08:56:01;13.45;;;12.05;;
10811;SDS011;5458;51.496;7.334;2022-08-20T08:58:28;13.45;;;12.05;;
10811;SDS011;5458;51.496;7.334;2022-08-20T09:00:54;13.73;;;12.15;;
10811;SDS011;5458;51.496;7.334;2022-08-20T09:03:26;14.90;;;12.20;;
10811;SDS011;5458;51.496;7.334;2022-08-20T09:05:58;14.35;;;12.85;;
10811;SDS011;5458;51.496;7.334;2022-08-20T09:08:26;13.60;;;12.30;;
10811;SDS011;5458;51.496;7.334;2022-08-20T09:11:03;14.75;;;13.25;;
10811;SDS011;5458;51.496;7.334;2022-08-20T09:13:30;13.30;;;11.88;;
10811;SDS011;5458;51.496;7.334;2022-08-20T09:15:56;13.82;;;12.40;;
10811;SDS011;5458;51.496;7.334;2022-08-20T09:18:21;14.48;;;12.98;;
10811;SDS011;5458;51.496;7.334;2022-08-20T09:20:47;13.48;;;12.13;;
10811;SDS011;5458;51.496;7.334;2022-08-20T09:23:13;15.30;;;13.60;;
10811;SDS011;5458;51.496;7.334;2022-08-20T09:25:38;12.98;;;11.68;;
10811;SDS011;5458;51.496;7.334;2022-08-20T09:28:04;13.35;;;12.02;;
10811;SDS011;5458;51.496;7.334;2022-08-20T09:30:29;13.32;;;11.93;;
10811;SDS011;5458;51.496;7.334;2022-08-20T09:32:57;15.00;;;13.43;;
10811;SDS011;5458;51.496;7.334;2022-08-20T09:35:23;14.02;;;12.20;;
10811;SDS011;5458;51.496;7.334;2022-08-20T09:37:49;14.80;;;12.82;;
10811;SDS011;5458;51.496;7.334;2022-08-20T09:40:16;14.90;;;13.35;;
10811;SDS011;5458;51.496;7.334;2022-08-20T09:42:42;15.15;;;13.55;;
10811;SDS011;5458;51.496;7.334;2022-08-20T09:45:09;14.77;;;13.27;;
10811;SDS011;5458;51.496;7.334;2022-08-20T09:47:36;16.65;;;14.95;;
10811;SDS011;5458;51.496;7.334;2022-08-20T09:50:02;21.65;;;19.45;;
10811;SDS011;5458;51.496;7.334;2022-08-20T09:52:29;21.70;;;19.23;;
10811;SDS011;5458;51.496;7.334;2022-08-20T09:54:58;20.92;;;18.75;;
10811;SDS011;5458;51.496;7.334;2022-08-20T09:57:26;24.27;;;21.70;;
10811;SDS011;5458;51.496;7.334;2022-08-20T09:59:54;26.25;;;23.38;;
10811;SDS011;5458;51.496;7.334;2022-08-20T10:02:23;26.75;;;23.02;;
10811;SDS011;5458;51.496;7.334;2022-08-20T10:04:49;25.20;;;21.63;;
10811;SDS011;5458;51.496;7.334;2022-08-20T10:07:15;23.90;;;20.88;;
10811;SDS011;5458;51.496;7.334;2022-08-20T10:09:41;22.92;;;20.13;;
10811;SDS011;5458;51.496;7.334;2022-08-20T10:12:07;24.20;;;21.20;;
10811;SDS011;5458;51.496;7.334;2022-08-20T10:14:32;24.05;;;21.48;;
10811;SDS011;5458;51.496;7.334;2022-08-20T10:16:58;27.38;;;24.40;;
10811;SDS011;5458;51.496;7.334;2022-08-20T10:19:25;30.25;;;27.00;;
10811;SDS011;5458;51.496;7.334;2022-08-20T10:21:52;30.38;;;26.30;;
10811;SDS011;5458;51.496;7.334;2022-08-20T10:24:19;32.90;;;27.48;;
10811;SDS011;5458;51.496;7.334;2022-08-20T10:26:46;33.25;;;26.48;;
10811;SDS011;5458;51.496;7.334;2022-08-20T10:29:13;28.40;;;25.25;;
10811;SDS011;5458;51.496;7.334;2022-08-20T10:31:39;29.98;;;26.75;;
10811;SDS011;5458;51.496;7.334;2022-08-20T10:34:04;31.27;;;25.52;;
10811;SDS011;5458;51.496;7.334;2022-08-20T10:36:30;29.60;;;24.52;;
10811;SDS011;5458;51.496;7.334;2022-08-20T10:38:56;25.58;;;22.85;;
10811;SDS011;5458;51.496;7.334;2022-08-20T10:41:22;30.90;;;24.33;;
10811;SDS011;5458;51.496;7.334;2022-08-20T10:43:47;28.00;;;24.27;;
10811;SDS011;5458;51.496;7.334;2022-08-20T10:46:13;27.98;;;21.55;;
10811;SDS011;5458;51.496;7.334;2022-08-20T10:48:39;28.17;;;23.02;;
10811;SDS011;5458;51.496;7.334;2022-08-20T10:51:04;25.35;;;22.42;;
10811;SDS011;5458;51.496;7.334;2022-08-20T10:53:30;26.88;;;24.08;;
10811;SDS011;5458;51.496;7.334;2022-08-20T10:55:56;26.75;;;23.65;;
10811;SDS011;5458;51.496;7.334;2022-08-20T10:58:22;27.77;;;24.77;;
10811;SDS011;5458;51.496;7.334;2022-08-20T11:00:49;27.80;;;23.70;;
10811;SDS011;5458;51.496;7.334;2022-08-20T11:03:16;28.55;;;24.73;;
10811;SDS011;5458;51.496;7.334;2022-08-20T11:05:41;26.05;;;23.27;;
10811;SDS011;5458;51.496;7.334;2022-08-20T11:08:07;27.88;;;24.90;;
10811;SDS011;5458;51.496;7.334;2022-08-20T11:10:33;28.55;;;25.48;;
10811;SDS011;5458;51.496;7.334;2022-08-20T11:13:00;27.60;;;24.52;;
10811;SDS011;5458;51.496;7.334;2022-08-20T11:15:27;26.75;;;24.05;;
10811;SDS011;5458;51.496;7.334;2022-08-20T11:17:52;25.45;;;22.52;;
10811;SDS011;5458;51.496;7.334;2022-08-20T11:20:19;23.92;;;21.48;;
10811;SDS011;5458;51.496;7.334;2022-08-20T11:22:48;24.10;;;21.60;;
10811;SDS011;5458;51.496;7.334;2022-08-20T11:25:13;23.77;;;21.27;;
10811;SDS011;5458;51.496;7.334;2022-08-20T11:27:40;20.85;;;18.65;;
10811;SDS011;5458;51.496;7.334;2022-08-20T11:30:10;21.17;;;18.63;;
10811;SDS011;5458;51.496;7.334;2022-08-20T11:32:38;20.50;;;17.38;;
10811;SDS011;5458;51.496;7.334;2022-08-20T11:35:04;20.48;;;18.30;;
10811;SDS011;5458;51.496;7.334;2022-08-20T11:37:30;17.92;;;15.57;;
10811;SDS011;5458;51.496;7.334;2022-08-20T11:39:57;17.35;;;14.88;;
10811;SDS011;5458;51.496;7.334;2022-08-20T11:42:22;17.35;;;14.77;;
10811;SDS011;5458;51.496;7.334;2022-08-20T11:44:48;18.13;;;16.23;;
10811;SDS011;5458;51.496;7.334;2022-08-20T11:47:21;16.88;;;14.88;;
10811;SDS011;5458;51.496;7.334;2022-08-20T11:50:00;16.70;;;14.90;;
10811;SDS011;5458;51.496;7.334;2022-08-20T11:52:34;17.05;;;14.32;;
10811;SDS011;5458;51.496;7.334;2022-08-20T11:55:00;14.10;;;12.63;;
10811;SDS011;5458;51.496;7.334;2022-08-20T11:57:27;15.90;;;12.73;;
10811;SDS011;5458;51.496;7.334;2022-08-20T11:59:55;14.40;;;12.07;;
10811;SDS011;5458;51.496;7.334;2022-08-20T12:02:22;12.88;;;11.57;;
10811;SDS011;5458;51.496;7.334;2022-08-20T12:04:48;13.43;;;11.23;;
10811;SDS011;5458;51.496;7.334;2022-08-20T12:07:15;19.52;;;13.02;;
10811;SDS011;5458;51.496;7.334;2022-08-20T12:09:42;12.85;;;11.55;;
10811;SDS011;5458;51.496;7.334;2022-08-20T12:12:09;12.05;;;10.85;;
10811;SDS011;5458;51.496;7.334;2022-08-20T12:14:35;15.43;;;11.85;;
10811;SDS011;5458;51.496;7.334;2022-08-20T12:17:14;15.98;;;11.40;;
10811;SDS011;5458;51.496;7.334;2022-08-20T12:19:48;13.38;;;12.00;;
10811;SDS011;5458;51.496;7.334;2022-08-20T12:22:17;14.40;;;10.90;;
10811;SDS011;5458;51.496;7.334;2022-08-20T12:24:44;12.10;;;10.27;;
10811;SDS011;5458;51.496;7.334;2022-08-20T12:27:10;19.42;;;12.05;;
10811;SDS011;5458;51.496;7.334;2022-08-20T12:30:07;15.07;;;11.32;;
10811;SDS011;5458;51.496;7.334;2022-08-20T12:32:35;13.60;;;11.80;;
10811;SDS011;5458;51.496;7.334;2022-08-20T12:35:01;13.57;;;11.15;;
10811;SDS011;5458;51.496;7.334;2022-08-20T12:37:28;14.63;;;10.45;;
10811;SDS011;5458;51.496;7.334;2022-08-20T12:39:56;14.00;;;11.02;;
10811;SDS011;5458;51.496;7.334;2022-08-20T12:42:22;13.10;;;10.95;;
10811;SDS011;5458;51.496;7.334;2022-08-20T12:44:48;13.80;;;11.55;;
10811;SDS011;5458;51.496;7.334;2022-08-20T12:47:18;13.10;;;9.80;;
10811;SDS011;5458;51.496;7.334;2022-08-20T12:49:52;13.50;;;10.73;;
10811;SDS011;5458;51.496;7.334;2022-08-20T12:52:21;11.68;;;10.35;;
10811;SDS011;5458;51.496;7.334;2022-08-20T12:54:48;17.05;;;11.77;;
10811;SDS011;5458;51.496;7.334;2022-08-20T12:59:57;13.13;;;10.60;;
10811;SDS011;5458;51.496;7.334;2022-08-20T13:02:24;13.63;;;10.65;;
10811;SDS011;5458;51.496;7.334;2022-08-20T13:04:50;14.75;;;11.23;;
10811;SDS011;5458;51.496;7.334;2022-08-20T13:07:16;13.13;;;11.23;;
10811;SDS011;5458;51.496;7.334;2022-08-20T13:09:41;14.85;;;10.95;;
10811;SDS011;5458;51.496;7.334;2022-08-20T13:12:08;12.73;;;11.40;;
10811;SDS011;5458;51.496;7.334;2022-08-20T13:14:35;12.13;;;10.25;;
10811;SDS011;5458;51.496;7.334;2022-08-20T13:17:02;14.02;;;10.77;;
10811;SDS011;5458;51.496;7.334;2022-08-20T13:19:28;11.65;;;10.30;;
10811;SDS011;5458;51.496;7.334;2022-08-20T13:21:54;14.90;;;10.57;;
10811;SDS011;5458;51.496;7.334;2022-08-20T13:24:20;11.05;;;9.95;;
10811;SDS011;5458;51.496;7.334;2022-08-20T13:26:46;11.60;;;9.32;;
10811;SDS011;5458;51.496;7.334;2022-08-20T13:29:12;12.15;;;10.68;;
10811;SDS011;5458;51.496;7.334;2022-08-20T13:31:39;10.80;;;9.70;;
10811;SDS011;5458;51.496;7.334;2022-08-20T13:34:05;14.65;;;10.77;;
10811;SDS011;5458;51.496;7.334;2022-08-20T13:36:32;13.13;;;10.02;;
10811;SDS011;5458;51.496;7.334;2022-08-20T13:38:58;12.05;;;10.07;;
10811;SDS011;5458;51.496;7.334;2022-08-20T13:41:25;13.07;;;10.32;;
10811;SDS011;5458;51.496;7.334;2022-08-20T13:43:50;9.80;;;8.20;;
10811;SDS011;5458;51.496;7.334;2022-08-20T13:46:16;10.23;;;6.93;;
10811;SDS011;5458;51.496;7.334;2022-08-20T13:48:42;7.13;;;6.43;;
10811;SDS011;5458;51.496;7.334;2022-08-20T13:51:08;7.88;;;6.55;;
10811;SDS011;5458;51.496;7.334;2022-08-20T13:53:34;8.15;;;6.00;;
10811;SDS011;5458;51.496;7.334;2022-08-20T13:55:59;6.20;;;5.60;;
10811;SDS011;5458;51.496;7.334;2022-08-20T13:58:25;8.18;;;5.78;;
10811;SDS011;5458;51.496;7.334;2022-08-20T14:00:51;8.13;;;5.10;;
10811;SDS011;5458;51.496;7.334;2022-08-20T14:03:16;8.43;;;5.90;;
10811;SDS011;5458;51.496;7.334;2022-08-20T14:05:42;8.98;;;5.75;;
10811;SDS011;5458;51.496;7.334;2022-08-20T14:08:09;8.23;;;6.47;;
10811;SDS011;5458;51.496;7.334;2022-08-20T14:10:37;9.68;;;5.57;;
10811;SDS011;5458;51.496;7.334;2022-08-20T14:13:03;5.70;;;4.85;;
10811;SDS011;5458;51.496;7.334;2022-08-20T14:15:31;6.60;;;4.03;;
10811;SDS011;5458;51.496;7.334;2022-08-20T14:17:57;4.00;;;3.60;;
10811;SDS011;5458;51.496;7.334;2022-08-20T14:20:24;7.20;;;4.20;;
10811;SDS011;5458;51.496;7.334;2022-08-20T14:22:51;8.32;;;4.65;;
10811;SDS011;5458;51.496;7.334;2022-08-20T14:25:18;8.82;;;6.82;;
10811;SDS011;5458;51.496;7.334;2022-08-20T14:27:45;8.90;;;6.53;;
10811;SDS011;5458;51.496;7.334;2022-08-20T14:30:16;8.25;;;6.18;;
10811;SDS011;5458;51.496;7.334;2022-08-20T14:32:45;10.32;;;6.82;;
10811;SDS011;5458;51.496;7.334;2022-08-20T14:35:11;8.43;;;6.85;;
10811;SDS011;5458;51.496;7.334;2022-08-20T14:37:38;9.18;;;7.38;;
10811;SDS011;5458;51.496;7.334;2022-08-20T14:40:07;7.53;;;6.72;;
10811;SDS011;5458;51.496;7.334;2022-08-20T14:42:35;8.50;;;5.78;;
10811;SDS011;5458;51.496;7.334;2022-08-20T14:45:01;6.55;;;5.90;;
10811;SDS011;5458;51.496;7.334;2022-08-20T14:47:32;7.22;;;6.00;;
10811;SDS011;5458;51.496;7.334;2022-08-20T14:50:00;7.38;;;5.97;;
10811;SDS011;5458;51.496;7.334;2022-08-20T14:52:29;7.38;;;6.45;;
10811;SDS011;5458;51.496;7.334;2022-08-20T14:54:56;8.10;;;7.22;;